Time;durP1;ratioP1;P1;durP2;ratioP2;P2;SDS_P1;SDS_P2;PMS_P1;PMS_P2;Temp;Humidity;BMP_temperature;BMP_pressure;BME280_temperature;BME280_humidity;BME280_pressure;Samples;Min_cycle;Max_cycle;Signal;HPM_P1;HPM_P2
2023/09/25 00:01:57;;;;;;;18.17;16.27;;;;;;;24.98;nan;98158.56;5024051;28;20061;-64
2023/09/25 00:04:28;;;;;;;22.42;17.65;;;;;;;24.83;nan;98152.56;5044396;28;20144;-63
2023/09/25 00:06:57;;;;;;;23.02;16.73;;;;;;;24.81;nan;98143.94;5045518;28;20144;-64
2023/09/25 00:09:27;;;;;;;20.83;17.13;;;;;;;24.86;nan;98143.88;5036162;28;20051;-63
2023/09/25 00:11:56;;;;;;;23.13;17.33;;;;;;;24.94;nan;98145.91;5037391;28;20512;-63
2023/09/25 00:14:25;;;;;;;20.45;16.75;;;;;;;24.97;nan;98170.50;5026420;28;20385;-64
2023/09/25 00:16:55;;;;;;;19.23;16.73;;;;;;;24.95;nan;98172.72;5018316;28;20061;-64
2023/09/25 00:19:26;;;;;;;20.67;16.63;;;;;;;24.92;nan;98172.47;5026581;28;20646;-63
2023/09/25 00:21:56;;;;;;;20.25;17.10;;;;;;;24.87;nan;98173.38;5026409;28;20060;-63
2023/09/25 00:24:25;;;;;;;20.83;16.27;;;;;;;25.00;nan;98180.72;5004409;28;20042;-63
2023/09/25 00:26:54;;;;;;;21.23;16.98;;;;;;;25.01;nan;98184.25;5007052;28;20104;-64
2023/09/25 00:29:24;;;;;;;20.90;16.58;;;;;;;24.95;nan;98183.56;5025247;28;20041;-64
2023/09/25 00:31:54;;;;;;;22.80;17.00;;;;;;;24.97;nan;98189.47;4992239;28;20067;-64
2023/09/25 00:34:25;;;;;;;23.85;18.38;;;;;;;25.11;nan;98194.91;5026380;28;20041;-63
2023/09/25 00:36:54;;;;;;;20.20;16.10;;;;;;;25.19;nan;98202.34;5026009;28;20041;-63
2023/09/25 00:39:24;;;;;;;23.85;19.55;;;;;;;25.36;nan;98213.41;5014617;28;20184;-63
2023/09/25 00:41:53;;;;;;;76.85;53.80;;;;;;;25.42;nan;98217.63;5024886;28;20076;-63
2023/09/25 00:44:22;;;;;;;60.03;42.75;;;;;;;25.38;nan;98204.97;5009104;28;20042;-63
2023/09/25 00:46:52;;;;;;;63.90;45.92;;;;;;;25.51;nan;98196.03;5008138;28;20468;-63
2023/09/25 00:49:21;;;;;;;28.75;21.58;;;;;;;25.74;nan;98192.34;5025849;28;20037;-63
2023/09/25 00:51:51;;;;;;;40.05;31.20;;;;;;;25.83;nan;98195.16;5008309;28;20111;-64
2023/09/25 00:54:20;;;;;;;32.47;24.80;;;;;;;25.76;nan;98195.53;5025218;28;20119;-63
2023/09/25 00:57:06;;;;;;;50.22;39.03;;;;;;;25.67;nan;98186.50;5023182;28;20053;-63
2023/09/25 00:59:39;;;;;;;38.65;28.60;;;;;;;25.84;nan;98197.56;5024970;28;20174;-63
2023/09/25 01:02:10;;;;;;;23.73;20.83;;;;;;;25.90;nan;98217.22;5009026;28;20111;-63
2023/09/25 01:04:40;;;;;;;25.73;21.02;;;;;;;25.85;nan;98241.75;5028124;28;20075;-63
2023/09/25 01:07:09;;;;;;;32.50;26.35;;;;;;;25.76;nan;98257.94;5027457;28;20079;-63
2023/09/25 01:09:39;;;;;;;22.10;17.25;;;;;;;25.78;nan;98263.06;5034265;28;20112;-63
2023/09/25 01:12:08;;;;;;;29.52;22.33;;;;;;;25.72;nan;98258.84;5018015;28;20072;-63
2023/09/25 01:14:38;;;;;;;17.77;15.95;;;;;;;25.98;nan;98261.88;5025793;28;20049;-63
2023/09/25 01:17:07;;;;;;;20.42;18.23;;;;;;;25.93;nan;98265.50;5007639;28;20083;-63
2023/09/25 01:19:42;;;;;;;25.02;18.98;;;;;;;25.81;nan;98265.97;5033867;28;20037;-63
2023/09/25 01:22:11;;;;;;;22.45;17.55;;;;;;;25.82;nan;98259.47;5025480;28;20045;-63
2023/09/25 01:24:40;;;;;;;19.13;13.60;;;;;;;25.66;nan;98258.16;5025643;28;20345;-63
2023/09/25 01:27:10;;;;;;;16.38;13.65;;;;;;;25.68;nan;98263.25;4999605;28;20126;-63
2023/09/25 01:29:40;;;;;;;28.83;12.77;;;;;;;25.66;nan;98266.31;5008585;28;20067;-63
2023/09/25 01:32:09;;;;;;;13.63;10.70;;;;;;;25.38;nan;98272.75;4994181;28;20053;-63
2023/09/25 01:34:39;;;;;;;14.15;11.80;;;;;;;25.39;nan;98266.25;5025310;28;20416;-64
2023/09/25 01:37:08;;;;;;;17.70;12.30;;;;;;;25.53;nan;98267.06;5024613;28;20049;-64
2023/09/25 01:39:37;;;;;;;16.80;11.00;;;;;;;25.34;nan;98263.63;5024683;28;20045;-64
2023/09/25 01:42:06;;;;;;;16.98;10.55;;;;;;;25.00;nan;98261.25;5007150;28;20135;-63
2023/09/25 01:44:37;;;;;;;18.77;10.52;;;;;;;24.79;nan;98263.41;5008207;28;20057;-63
2023/09/25 01:47:06;;;;;;;19.35;9.75;;;;;;;24.62;nan;98271.28;5004535;28;20046;-63
2023/09/25 01:49:35;;;;;;;14.32;9.45;;;;;;;24.55;nan;98285.19;5018399;28;20500;-63
2023/09/25 01:52:21;;;;;;;12.98;7.60;;;;;;;24.60;nan;98281.63;4999264;28;20041;-63
2023/09/25 01:54:51;;;;;;;12.43;7.50;;;;;;;24.29;nan;98261.50;5023751;28;20054;-63
2023/09/25 01:57:21;;;;;;;10.90;7.50;;;;;;;24.41;nan;98256.44;5024965;28;20103;-64
2023/09/25 01:59:50;;;;;;;11.25;7.32;;;;;;;24.32;nan;98274.44;5008528;28;20540;-64
2023/09/25 02:02:20;;;;;;;13.00;8.57;;;;;;;24.28;nan;98287.75;5011115;28;20037;-63
2023/09/25 02:04:49;;;;;;;20.05;8.68;;;;;;;24.23;nan;98306.75;5007452;28;20061;-63
2023/09/25 02:07:19;;;;;;;15.07;9.30;;;;;;;24.22;nan;98334.09;5024106;28;20046;-63
2023/09/25 02:09:48;;;;;;;19.45;8.60;;;;;;;24.09;nan;98355.34;5023108;28;20148;-63
2023/09/25 02:12:18;;;;;;;16.35;9.65;;;;;;;24.03;nan;98355.69;5027813;28;20037;-63
2023/09/25 02:14:49;;;;;;;26.20;11.25;;;;;;;24.07;nan;98359.44;5023090;28;20057;-63
2023/09/25 02:17:19;;;;;;;24.00;11.75;;;;;;;23.98;nan;98358.44;5011315;28;20138;-63
2023/09/25 02:19:48;;;;;;;25.80;12.43;;;;;;;24.07;nan;98346.72;5033182;28;20140;-64
2023/09/25 02:22:17;;;;;;;19.65;12.55;;;;;;;24.22;nan;98339.50;5022068;28;20044;-64
2023/09/25 02:24:46;;;;;;;19.52;12.63;;;;;;;24.52;nan;98342.63;5022616;28;20053;-64
2023/09/25 02:27:15;;;;;;;20.63;11.75;;;;;;;24.50;nan;98330.50;5020047;28;20038;-64
2023/09/25 02:29:45;;;;;;;19.70;12.20;;;;;;;24.24;nan;98310.28;5027556;28;20160;-64
2023/09/25 02:32:14;;;;;;;20.75;11.98;;;;;;;24.47;nan;98304.00;5024954;28;20134;-64
2023/09/25 02:34:45;;;;;;;22.42;12.00;;;;;;;24.52;nan;98298.50;5021229;28;20076;-64
2023/09/25 02:37:14;;;;;;;19.75;12.32;;;;;;;24.73;nan;98301.72;5024863;28;20053;-63
2023/09/25 02:39:43;;;;;;;21.10;13.10;;;;;;;24.63;nan;98320.84;5035156;28;20132;-64
2023/09/25 02:42:13;;;;;;;23.38;13.05;;;;;;;24.50;nan;98339.44;5046222;28;20111;-62
2023/09/25 02:44:42;;;;;;;22.38;14.30;;;;;;;24.60;nan;98379.91;5009028;28;20070;-62
2023/09/25 02:47:11;;;;;;;27.13;16.80;;;;;;;24.56;nan;98405.16;5008936;28;20077;-63
2023/09/25 02:49:40;;;;;;;30.77;17.50;;;;;;;24.27;nan;98407.94;5012299;28;20132;-64
2023/09/25 02:52:09;;;;;;;28.67;17.77;;;;;;;24.30;nan;98403.81;5027582;28;20045;-62
2023/09/25 02:54:55;;;;;;;30.23;19.20;;;;;;;24.12;nan;98397.22;5026219;28;20045;-63
2023/09/25 02:57:24;;;;;;;34.53;19.70;;;;;;;24.44;nan;98402.84;4996532;28;20046;-64
2023/09/25 02:59:54;;;;;;;35.65;19.75;;;;;;;24.60;nan;98389.94;5034246;28;20068;-63
2023/09/25 03:02:25;;;;;;;35.88;21.23;;;;;;;24.66;nan;98375.22;5023287;28;20041;-64
2023/09/25 03:04:55;;;;;;;40.45;23.70;;;;;;;24.66;nan;98358.97;5041557;28;20836;-64
2023/09/25 03:07:25;;;;;;;43.75;23.08;;;;;;;24.66;nan;98350.03;5046776;28;20048;-64
2023/09/25 03:09:55;;;;;;;35.25;21.55;;;;;;;24.78;nan;98353.13;5028808;28;20065;-63
2023/09/25 03:12:24;;;;;;;35.00;21.25;;;;;;;24.90;nan;98340.78;5040556;28;20073;-63
2023/09/25 03:14:53;;;;;;;29.27;18.20;;;;;;;24.83;nan;98340.28;5027924;28;20041;-63
2023/09/25 03:17:23;;;;;;;27.52;17.98;;;;;;;24.99;nan;98328.16;5025266;28;20041;-63
2023/09/25 03:19:52;;;;;;;28.70;18.17;;;;;;;24.75;nan;98340.16;5036559;28;20128;-63
2023/09/25 03:22:21;;;;;;;28.30;18.05;;;;;;;24.85;nan;98367.91;5027831;28;20069;-63
2023/09/25 03:24:55;;;;;;;27.23;17.80;;;;;;;24.78;nan;98361.25;5028159;28;20060;-62
2023/09/25 03:27:24;;;;;;;25.08;16.13;;;;;;;25.17;nan;98366.38;5019036;28;20063;-63
2023/09/25 03:29:54;;;;;;;22.73;13.70;;;;;;;25.01;nan;98369.31;5018504;28;20066;-63
2023/09/25 03:32:24;;;;;;;23.38;12.68;;;;;;;25.00;nan;98367.69;5023528;28;20466;-63
2023/09/25 03:34:53;;;;;;;16.00;11.25;;;;;;;25.07;nan;98353.78;5021321;28;20049;-63
2023/09/25 03:37:22;;;;;;;18.83;12.05;;;;;;;25.22;nan;98369.81;5014598;28;20053;-63
2023/09/25 03:39:51;;;;;;;12.90;8.93;;;;;;;25.20;nan;98376.63;5017490;28;20133;-63
2023/09/25 03:42:21;;;;;;;17.92;9.52;;;;;;;25.21;nan;98375.53;5026215;28;20053;-63
2023/09/25 03:44:51;;;;;;;23.73;10.27;;;;;;;25.17;nan;98356.34;4999723;28;20132;-63
2023/09/25 03:47:22;;;;;;;14.63;9.13;;;;;;;25.21;nan;98357.38;5007831;28;20054;-63
2023/09/25 03:49:53;;;;;;;12.90;8.68;;;;;;;25.42;nan;98353.22;5002582;28;20049;-63
2023/09/25 03:52:23;;;;;;;13.05;7.53;;;;;;;25.56;nan;98347.84;5022600;28;20057;-65
2023/09/25 03:54:52;;;;;;;13.40;7.25;;;;;;;25.59;nan;98339.09;5001100;28;20058;-65
2023/09/25 03:57:22;;;;;;;14.32;8.18;;;;;;;25.38;nan;98337.84;5013627;28;20053;-64
2023/09/25 03:59:51;;;;;;;8.48;7.00;;;;;;;25.41;nan;98348.06;5028442;28;20053;-64
2023/09/25 04:02:21;;;;;;;10.43;6.45;;;;;;;25.73;nan;98352.69;5018608;28;20458;-65
2023/09/25 04:04:50;;;;;;;10.80;6.90;;;;;;;25.86;nan;98347.28;5017961;28;20152;-65
2023/09/25 04:07:19;;;;;;;13.15;6.38;;;;;;;25.94;nan;98356.63;5042128;28;20042;-65
2023/09/25 04:09:49;;;;;;;13.60;7.22;;;;;;;26.18;nan;98359.16;5036492;28;20053;-61
2023/09/25 04:12:19;;;;;;;12.10;6.90;;;;;;;26.18;nan;98353.72;5029677;28;20049;-64
2023/09/25 04:14:48;;;;;;;16.23;7.07;;;;;;;26.04;nan;98356.44;5019887;28;20574;-65
2023/09/25 04:17:17;;;;;;;12.73;6.65;;;;;;;26.05;nan;98346.41;5026591;28;20041;-64
2023/09/25 04:19:49;;;;;;;9.32;6.32;;;;;;;26.37;nan;98335.44;5021539;28;20045;-64
2023/09/25 04:22:20;;;;;;;14.10;7.15;;;;;;;26.63;nan;98330.25;5027861;28;20048;-65
2023/09/25 04:24:49;;;;;;;9.77;5.95;;;;;;;26.80;nan;98331.22;5027312;28;20041;-64
2023/09/25 04:27:18;;;;;;;10.75;6.70;;;;;;;26.75;nan;98334.06;5026500;28;20048;-65
2023/09/25 04:29:47;;;;;;;14.13;6.43;;;;;;;26.80;nan;98327.69;5020291;28;20061;-64
2023/09/25 04:32:17;;;;;;;18.95;6.38;;;;;;;26.69;nan;98326.31;5025277;28;20141;-63
2023/09/25 04:34:47;;;;;;;10.43;6.65;;;;;;;26.64;nan;98329.16;5045209;28;20053;-64
2023/09/25 04:37:16;;;;;;;10.40;6.70;;;;;;;26.48;nan;98312.38;5045698;28;20049;-65
2023/09/25 04:39:45;;;;;;;10.60;6.85;;;;;;;26.62;nan;98321.31;5035758;28;20164;-64
2023/09/25 04:42:15;;;;;;;12.23;7.05;;;;;;;26.60;nan;98331.66;5019080;28;20045;-65
2023/09/25 04:44:44;;;;;;;14.40;6.35;;;;;;;26.62;nan;98332.19;5026537;28;20073;-64
2023/09/25 04:47:13;;;;;;;12.10;7.03;;;;;;;26.38;nan;98325.41;5025234;28;20037;-63
2023/09/25 04:49:42;;;;;;;11.45;6.43;;;;;;;26.22;nan;98330.31;5020522;28;20366;-63
2023/09/25 04:52:11;;;;;;;11.07;6.93;;;;;;;26.19;nan;98320.06;5037480;28;20049;-64
2023/09/25 04:54:41;;;;;;;13.48;6.95;;;;;;;26.10;nan;98311.81;5018674;28;20045;-65
2023/09/25 04:57:10;;;;;;;11.98;6.75;;;;;;;26.14;nan;98320.97;5011442;28;20046;-65
2023/09/25 04:59:39;;;;;;;14.82;6.95;;;;;;;26.22;nan;98330.31;5013901;28;20075;-64
2023/09/25 05:02:08;;;;;;;14.30;7.15;;;;;;;26.27;nan;98325.59;5024595;28;20049;-64
2023/09/25 05:04:37;;;;;;;11.52;6.82;;;;;;;26.19;nan;98330.91;5022743;28;20110;-65
2023/09/25 05:07:07;;;;;;;9.02;6.68;;;;;;;26.03;nan;98327.69;5025197;28;20056;-64
2023/09/25 05:09:36;;;;;;;11.25;7.07;;;;;;;25.80;nan;98345.75;5024406;28;20126;-64
2023/09/25 05:12:06;;;;;;;24.45;7.60;;;;;;;25.88;nan;98345.09;5036144;28;20056;-65
2023/09/25 05:14:35;;;;;;;7.22;6.05;;;;;;;26.11;nan;98353.34;5028042;28;20049;-64
2023/09/25 05:17:04;;;;;;;9.95;6.55;;;;;;;26.08;nan;98353.94;5025446;28;20148;-63
2023/09/25 05:19:34;;;;;;;9.18;6.32;;;;;;;25.87;nan;98354.31;5036605;28;20081;-65
2023/09/25 05:22:06;;;;;;;14.02;6.97;;;;;;;25.71;nan;98361.13;4999382;28;20828;-68
2023/09/25 05:24:35;;;;;;;14.65;7.68;;;;;;;25.82;nan;98348.19;5016525;28;20060;-68
2023/09/25 05:27:05;;;;;;;10.55;7.20;;;;;;;25.94;nan;98354.72;5025290;28;20056;-68
2023/09/25 05:29:34;;;;;;;15.05;6.60;;;;;;;26.10;nan;98351.72;5027298;28;20053;-66
2023/09/25 05:32:04;;;;;;;16.38;7.55;;;;;;;26.05;nan;98349.09;5044980;28;20049;-68
2023/09/25 05:34:34;;;;;;;11.02;7.85;;;;;;;26.05;nan;98349.91;5022172;28;20073;-68
2023/09/25 05:37:03;;;;;;;16.70;9.25;;;;;;;25.86;nan;98347.28;5021856;28;20056;-69
2023/09/25 05:39:33;;;;;;;12.13;7.65;;;;;;;26.14;nan;98355.44;5027007;28;20131;-68
2023/09/25 05:42:02;;;;;;;16.00;8.02;;;;;;;26.50;nan;98366.41;5044925;28;20790;-71
2023/09/25 05:44:31;;;;;;;18.85;8.88;;;;;;;26.41;nan;98368.22;5017901;28;20049;-69
2023/09/25 05:47:00;;;;;;;16.63;10.63;;;;;;;26.43;nan;98366.81;5031979;28;20162;-69
2023/09/25 05:49:29;;;;;;;13.98;9.38;;;;;;;26.48;nan;98374.84;5017394;28;20136;-69
2023/09/25 05:51:59;;;;;;;14.20;7.53;;;;;;;26.80;nan;98376.63;5008847;28;20056;-71
2023/09/25 05:54:28;;;;;;;15.38;7.78;;;;;;;27.03;nan;98375.56;5023605;28;20049;-70
2023/09/25 05:56:58;;;;;;;14.45;9.02;;;;;;;27.15;nan;98375.00;5021218;28;20045;-71
2023/09/25 05:59:28;;;;;;;14.77;10.88;;;;;;;26.95;nan;98364.63;5017663;28;20142;-70
2023/09/25 06:01:57;;;;;;;13.85;10.00;;;;;;;27.08;nan;98374.66;5024607;28;20049;-70
2023/09/25 06:04:26;;;;;;;11.05;8.55;;;;;;;26.95;nan;98370.06;5042284;28;20049;-72
2023/09/25 06:06:56;;;;;;;17.23;9.60;;;;;;;27.22;nan;98368.03;5024798;28;20050;-71
2023/09/25 06:09:25;;;;;;;13.35;10.15;;;;;;;27.31;nan;98364.59;5000209;28;20452;-69
2023/09/25 06:11:54;;;;;;;15.73;10.82;;;;;;;27.33;nan;98363.16;5013520;28;20065;-70
2023/09/25 06:14:25;;;;;;;12.38;11.07;;;;;;;27.38;nan;98360.31;5036603;28;20120;-71
2023/09/25 06:16:59;;;;;;;13.65;10.40;;;;;;;27.40;nan;98355.34;5025605;28;20045;-72
2023/09/25 06:19:28;;;;;;;18.23;12.05;;;;;;;27.37;nan;98347.81;5029340;28;20052;-69
2023/09/25 06:21:57;;;;;;;15.73;11.70;;;;;;;27.37;nan;98341.56;5045116;28;20528;-71
2023/09/25 06:24:26;;;;;;;17.55;12.70;;;;;;;27.36;nan;98348.13;5045713;28;20679;-68
2023/09/25 06:26:56;;;;;;;20.00;12.73;;;;;;;27.33;nan;98357.72;5048336;28;20055;-71
2023/09/25 06:29:29;;;;;;;15.57;12.15;;;;;;;27.32;nan;98361.53;5043279;28;20075;-69
2023/09/25 06:31:59;;;;;;;;;;;;;;;27.28;nan;98368.72;5059782;28;20332;-70
2023/09/25 06:34:30;;;;;;;15.15;11.60;;;;;;;27.22;nan;98365.31;5048782;28;20362;-70
2023/09/25 06:37:00;;;;;;;18.73;12.60;;;;;;;27.21;nan;98376.50;5034710;28;20045;-69
2023/09/25 06:39:29;;;;;;;17.33;11.43;;;;;;;27.20;nan;98370.28;5046544;28;20055;-70
2023/09/25 06:41:58;;;;;;;18.77;12.98;;;;;;;27.17;nan;98373.59;5047912;28;20051;-71
2023/09/25 06:44:28;;;;;;;19.85;12.32;;;;;;;27.15;nan;98369.56;5043301;28;20099;-74
2023/09/25 06:46:58;;;;;;;18.10;12.90;;;;;;;27.16;nan;98373.91;5032816;28;20052;-69
2023/09/25 06:49:28;;;;;;;19.52;12.27;;;;;;;27.16;nan;98371.19;5041747;28;20069;-70
2023/09/25 06:51:57;;;;;;;18.27;12.50;;;;;;;27.18;nan;98366.22;5040095;28;20045;-70
2023/09/25 06:54:26;;;;;;;16.58;12.90;;;;;;;27.21;nan;98365.63;5029765;28;20052;-70
2023/09/25 06:56:56;;;;;;;15.85;12.80;;;;;;;27.26;nan;98363.56;5047960;28;20586;-71
2023/09/25 06:59:26;;;;;;;14.82;12.45;;;;;;;27.33;nan;98360.44;5045878;28;20036;-73
2023/09/25 07:01:56;;;;;;;16.45;12.65;;;;;;;27.36;nan;98350.84;5050653;28;20179;-71
2023/09/25 07:04:26;;;;;;;14.45;11.95;;;;;;;27.44;nan;98359.06;5045685;28;20137;-72
2023/09/25 07:06:56;;;;;;;16.85;12.45;;;;;;;27.52;nan;98350.19;5044565;28;20060;-71
2023/09/25 07:09:26;;;;;;;17.50;11.90;;;;;;;27.58;nan;98342.69;5045381;28;20064;-71
2023/09/25 07:11:55;;;;;;;13.73;12.10;;;;;;;27.63;nan;98342.56;5046602;28;20206;-71
2023/09/25 07:14:24;;;;;;;15.43;11.88;;;;;;;27.70;nan;98340.97;5045678;28;20056;-73
2023/09/25 07:16:53;;;;;;;19.15;13.02;;;;;;;27.75;nan;98342.00;5045135;28;20364;-72
2023/09/25 07:19:23;;;;;;;14.45;12.13;;;;;;;27.80;nan;98348.06;5048131;28;20114;-71
2023/09/25 07:21:53;;;;;;;16.10;13.18;;;;;;;27.86;nan;98338.66;5045061;28;20403;-70
2023/09/25 07:24:22;;;;;;;15.15;12.48;;;;;;;27.94;nan;98340.63;5045107;28;20068;-70
2023/09/25 07:26:51;;;;;;;13.15;11.85;;;;;;;28.13;nan;98332.22;5055590;28;20055;-68
2023/09/25 07:29:22;;;;;;;14.80;12.07;;;;;;;28.33;nan;98337.09;5036559;28;20135;-69
2023/09/25 07:32:08;;;;;;;14.18;12.50;;;;;;;28.39;nan;98330.38;5045268;28;20040;-70
2023/09/25 07:34:37;;;;;;;14.85;12.73;;;;;;;28.62;nan;98331.06;5048789;28;20620;-69
2023/09/25 07:37:07;;;;;;;14.15;12.68;;;;;;;28.90;nan;98326.91;5063288;28;20148;-69
2023/09/25 07:39:40;;;;;;;14.40;12.43;;;;;;;29.07;nan;98326.13;5054357;28;20040;-70
2023/09/25 07:42:11;;;;;;;15.98;13.02;;;;;;;29.08;nan;98319.53;5049667;28;20048;-73
2023/09/25 07:44:40;;;;;;;15.98;14.05;;;;;;;29.11;nan;98312.63;5042757;28;20494;-73
2023/09/25 07:47:12;;;;;;;17.42;12.15;;;;;;;29.08;nan;98305.88;5036175;28;20465;-71
2023/09/25 07:49:44;;;;;;;14.63;12.87;;;;;;;29.15;nan;98299.97;5046920;28;20052;-71
2023/09/25 07:52:19;;;;;;;14.57;13.05;;;;;;;29.26;nan;98299.28;5048597;28;20052;-72
2023/09/25 07:54:49;;;;;;;15.00;12.55;;;;;;;29.35;nan;98293.84;5045009;28;20457;-73
2023/09/25 07:57:20;;;;;;;17.45;11.68;;;;;;;29.45;nan;98297.03;5036455;28;20052;-70
2023/09/25 07:59:50;;;;;;;15.95;12.73;;;;;;;29.57;nan;98292.81;5039631;28;20088;-71
2023/09/25 08:02:20;;;;;;;16.58;12.77;;;;;;;29.38;nan;98287.75;5051464;28;20110;-73
2023/09/25 08:04:50;;;;;;;14.20;11.98;;;;;;;29.45;nan;98285.31;5066085;28;20056;-71
2023/09/25 08:07:19;;;;;;;13.20;11.88;;;;;;;29.52;nan;98276.63;5043244;28;20077;-69
2023/09/25 08:09:49;;;;;;;12.95;11.15;;;;;;;29.56;nan;98269.38;5052250;28;20052;-69
2023/09/25 08:12:19;;;;;;;13.40;10.38;;;;;;;29.44;nan;98262.66;5049747;28;20546;-72
2023/09/25 08:14:49;;;;;;;11.85;10.23;;;;;;;29.48;nan;98259.28;4997693;28;20144;-66
2023/09/25 08:17:18;;;;;;;12.70;10.25;;;;;;;29.44;nan;98257.22;5042753;28;20110;-67
2023/09/25 08:19:52;;;;;;;13.10;10.98;;;;;;;29.53;nan;98253.66;5015394;28;20124;-65
2023/09/25 08:22:22;;;;;;;12.85;10.55;;;;;;;29.51;nan;98247.72;5044518;28;20484;-67
2023/09/25 08:24:51;;;;;;;11.40;10.15;;;;;;;29.44;nan;98245.50;5038548;28;20056;-68
2023/09/25 08:27:20;;;;;;;13.98;11.00;;;;;;;29.48;nan;98237.44;5044463;28;20506;-67
2023/09/25 08:29:49;;;;;;;12.65;10.85;;;;;;;29.55;nan;98244.03;5041872;28;20067;-67
2023/09/25 08:32:19;;;;;;;12.48;9.68;;;;;;;29.55;nan;98237.75;5048652;28;20119;-68
2023/09/25 08:34:48;;;;;;;10.07;9.07;;;;;;;29.49;nan;98231.69;5044214;28;20049;-69
2023/09/25 08:37:18;;;;;;;12.57;9.38;;;;;;;29.44;nan;98229.94;5043467;28;20090;-72
2023/09/25 08:39:57;;;;;;;10.90;9.68;;;;;;;29.44;nan;98229.94;5039848;28;20045;-73
2023/09/25 08:42:29;;;;;;;10.30;9.25;;;;;;;29.49;nan;98228.13;5017102;28;20045;-73
2023/09/25 08:45:03;;;;;;;10.77;9.20;;;;;;;29.51;nan;98210.31;5042406;28;20052;-73
2023/09/25 08:47:34;;;;;;;10.40;8.88;;;;;;;29.54;nan;98214.31;5036616;28;20045;-72
2023/09/25 08:50:08;;;;;;;10.27;9.18;;;;;;;29.50;nan;98207.91;5021270;28;20053;-73
2023/09/25 08:52:38;;;;;;;10.43;8.85;;;;;;;29.53;nan;98212.72;5040790;28;20048;-73
2023/09/25 08:55:08;;;;;;;10.32;8.73;;;;;;;29.48;nan;98196.50;5039453;28;20052;-71
2023/09/25 08:57:42;;;;;;;11.98;8.98;;;;;;;29.53;nan;98202.59;5023276;28;20139;-73
2023/09/25 09:00:26;;;;;;;10.07;8.77;;;;;;;29.56;nan;98207.41;5056123;28;20037;-72
2023/09/25 09:02:55;;;;;;;9.93;8.65;;;;;;;29.53;nan;98193.59;5045752;28;20060;-71
2023/09/25 09:05:24;;;;;;;9.98;8.15;;;;;;;29.51;nan;98196.69;5044710;28;20136;-71
2023/09/25 09:08:01;;;;;;;10.38;8.65;;;;;;;29.55;nan;98194.09;5044966;28;20068;-69
2023/09/25 09:10:32;;;;;;;12.48;8.65;;;;;;;29.50;nan;98186.88;5044450;28;20048;-70
2023/09/25 09:13:07;;;;;;;11.13;8.77;;;;;;;29.57;nan;98192.63;5032532;28;20052;-68
2023/09/25 09:15:41;;;;;;;12.07;9.10;;;;;;;29.57;nan;98191.81;5035421;28;20215;-69
2023/09/25 09:18:25;;;;;;;11.60;8.55;;;;;;;29.66;nan;98187.13;5034238;28;20060;-69
2023/09/25 09:20:55;;;;;;;10.68;8.45;;;;;;;29.65;nan;98191.00;5043071;28;20051;-69
2023/09/25 09:23:42;;;;;;;10.23;7.72;;;;;;;29.61;nan;98190.84;5059359;28;20047;-68
2023/09/25 09:26:14;;;;;;;10.15;7.75;;;;;;;29.43;nan;98192.06;5038617;28;20094;-69
2023/09/25 09:28:46;;;;;;;9.73;7.65;;;;;;;29.43;nan;98189.34;5042736;28;20037;-68
2023/09/25 09:31:18;;;;;;;11.80;8.55;;;;;;;29.50;nan;98189.63;5046589;28;20049;-68
2023/09/25 09:33:48;;;;;;;10.27;7.75;;;;;;;29.52;nan;98181.09;5036095;28;20055;-69
2023/09/25 09:36:19;;;;;;;9.70;7.68;;;;;;;29.50;nan;98184.16;5042839;28;20143;-69
2023/09/25 09:38:50;;;;;;;11.77;7.75;;;;;;;29.47;nan;98173.09;5027081;28;20045;-69
2023/09/25 09:41:20;;;;;;;11.18;7.90;;;;;;;29.59;nan;98176.72;5045550;28;20062;-69
2023/09/25 09:43:52;;;;;;;10.93;7.85;;;;;;;29.54;nan;98171.44;5041127;28;20135;-65
2023/09/25 09:46:29;;;;;;;8.65;6.97;;;;;;;29.62;nan;98170.59;5040870;28;20067;-63
2023/09/25 09:49:02;;;;;;;10.77;7.50;;;;;;;29.68;nan;98173.94;5043783;28;20051;-64
2023/09/25 09:51:34;;;;;;;12.73;8.32;;;;;;;29.56;nan;98171.13;5013618;28;20048;-64
2023/09/25 09:54:05;;;;;;;9.25;7.32;;;;;;;29.60;nan;98169.34;5049243;28;20060;-65
2023/09/25 09:56:35;;;;;;;9.55;7.90;;;;;;;29.54;nan;98163.25;5012041;28;20171;-63
2023/09/25 09:59:08;;;;;;;11.57;8.57;;;;;;;29.54;nan;98162.47;5043083;28;20063;-65
2023/09/25 10:01:40;;;;;;;13.95;7.72;;;;;;;29.61;nan;98162.75;5049883;28;20633;-64
2023/09/25 10:04:10;;;;;;;10.80;8.27;;;;;;;29.67;nan;98155.97;5052169;28;20052;-65
2023/09/25 10:06:52;;;;;;;11.57;8.80;;;;;;;29.68;nan;98152.13;5038670;28;20163;-65
2023/09/25 10:09:21;;;;;;;13.68;8.60;;;;;;;29.67;nan;98151.31;5036889;28;20844;-66
2023/09/25 10:11:56;;;;;;;11.77;8.60;;;;;;;29.65;nan;98158.25;5038548;28;20060;-64
2023/09/25 10:14:30;;;;;;;14.52;9.00;;;;;;;29.65;nan;98164.47;5045395;28;20134;-64
2023/09/25 10:17:02;;;;;;;13.15;9.40;;;;;;;29.62;nan;98153.41;5042749;28;20087;-64
2023/09/25 10:19:40;;;;;;;13.65;9.48;;;;;;;29.67;nan;98153.22;5043661;28;20056;-64
2023/09/25 10:22:26;;;;;;;18.40;10.73;;;;;;;29.68;nan;98157.56;5042613;28;20072;-64
2023/09/25 10:25:12;;;;;;;15.65;11.02;;;;;;;29.64;nan;98153.91;5045842;28;20041;-67
2023/09/25 10:27:44;;;;;;;18.15;11.80;;;;;;;29.68;nan;98149.38;5047656;28;20054;-65
2023/09/25 10:30:17;;;;;;;24.40;12.82;;;;;;;29.70;nan;98141.66;5047934;28;20471;-64
2023/09/25 10:32:53;;;;;;;16.50;12.85;;;;;;;29.64;nan;98143.78;5043743;28;20114;-65
2023/09/25 10:35:42;;;;;;;19.20;13.10;;;;;;;29.65;nan;98136.41;5040831;28;20052;-65
2023/09/25 10:38:19;;;;;;;23.58;15.13;;;;;;;29.67;nan;98132.19;5031607;28;20362;-65
2023/09/25 10:40:56;;;;;;;24.30;16.92;;;;;;;29.63;nan;98141.38;5058849;28;20055;-66
2023/09/25 10:43:26;;;;;;;30.20;18.27;;;;;;;29.58;nan;98136.91;5048495;28;20041;-66
2023/09/25 10:45:55;;;;;;;29.73;19.42;;;;;;;29.58;nan;98131.44;5040758;28;20144;-65
2023/09/25 10:48:29;;;;;;;28.02;19.08;;;;;;;29.64;nan;98132.06;5043702;28;20056;-65
2023/09/25 10:51:00;;;;;;;29.42;18.30;;;;;;;29.60;nan;98131.94;5043170;28;20063;-67
2023/09/25 10:53:29;;;;;;;34.72;22.23;;;;;;;29.60;nan;98140.13;5046145;28;20107;-67
2023/09/25 10:56:01;;;;;;;34.00;22.77;;;;;;;29.56;nan;98133.72;5058848;28;20037;-66
2023/09/25 10:58:33;;;;;;;34.95;22.25;;;;;;;29.50;nan;98145.16;5026596;28;20036;-67
2023/09/25 11:01:02;;;;;;;33.25;22.83;;;;;;;29.42;nan;98142.16;5044438;28;20739;-67
2023/09/25 11:03:37;;;;;;;33.38;22.17;;;;;;;29.38;nan;98138.47;5047243;28;20597;-65
2023/09/25 11:06:10;;;;;;;37.38;22.95;;;;;;;29.33;nan;98141.38;5043486;28;20129;-66
2023/09/25 11:08:40;;;;;;;37.63;22.00;;;;;;;29.30;nan;98136.56;5049647;28;20060;-65
2023/09/25 11:11:15;;;;;;;33.28;21.33;;;;;;;29.21;nan;98141.22;5045371;28;20048;-65
2023/09/25 11:13:44;;;;;;;29.65;19.67;;;;;;;29.19;nan;98146.22;5047218;28;20036;-65
2023/09/25 11:16:14;;;;;;;23.70;18.55;;;;;;;29.17;nan;98148.47;5046498;28;20037;-63
2023/09/25 11:18:43;;;;;;;25.42;17.63;;;;;;;29.09;nan;98141.13;5035489;28;20048;-65
2023/09/25 11:21:12;;;;;;;25.98;15.27;;;;;;;29.04;nan;98146.75;5062799;28;20064;-65
2023/09/25 11:23:43;;;;;;;18.38;13.25;;;;;;;28.99;nan;98146.94;5056487;28;20477;-65
2023/09/25 11:26:13;;;;;;;14.70;12.77;;;;;;;28.94;nan;98145.19;5052957;28;20064;-66
2023/09/25 11:28:42;;;;;;;15.88;11.82;;;;;;;28.90;nan;98146.19;5036264;28;20169;-66
2023/09/25 11:31:11;;;;;;;16.50;11.23;;;;;;;28.86;nan;98142.47;5031871;28;20114;-66
2023/09/25 11:33:41;;;;;;;16.58;10.70;;;;;;;28.83;nan;98143.94;5049711;28;20063;-63
2023/09/25 11:36:14;;;;;;;13.80;11.20;;;;;;;28.78;nan;98137.84;5046605;28;20051;-64
2023/09/25 11:38:52;;;;;;;11.65;9.30;;;;;;;28.75;nan;98136.59;5025553;28;20064;-64
2023/09/25 11:41:22;;;;;;;11.18;9.38;;;;;;;28.70;nan;98131.31;5032702;28;20041;-65
2023/09/25 11:43:51;;;;;;;12.40;9.68;;;;;;;28.66;nan;98134.97;5043310;28;20045;-64
2023/09/25 11:46:22;;;;;;;14.07;9.63;;;;;;;28.65;nan;98130.66;5027619;28;20048;-69
2023/09/25 11:48:52;;;;;;;11.75;9.40;;;;;;;28.66;nan;98130.34;5042571;28;20480;-68
2023/09/25 11:51:21;;;;;;;15.93;9.02;;;;;;;28.61;nan;98133.22;5038267;28;20061;-69
2023/09/25 11:53:52;;;;;;;12.20;8.88;;;;;;;28.56;nan;98122.50;5043983;28;20499;-69